sensor_id;sensor_type;location;lat;lon;timestamp;pressure;altitude;pressure_sealevel;temperature;humidity
52319;BME280;38258;51.148;14.068;2022-10-16T00:01:07;98098.88;;;13.01;100.00
52319;BME280;38258;51.148;14.068;2022-10-16T00:03:34;98100.91;;;12.95;100.00
52319;BME280;38258;51.148;14.068;2022-10-16T00:06:02;98105.81;;;12.82;100.00
52319;BME280;38258;51.148;14.068;2022-10-16T00:08:29;98102.06;;;12.87;100.00
52319;BME280;38258;51.148;14.068;2022-10-16T00:11:01;98109.88;;;12.89;100.00
52319;BME280;38258;51.148;14.068;2022-10-16T00:13:29;98106.81;;;12.79;100.00
52319;BME280;38258;51.148;14.068;2022-10-16T00:15:57;98105.69;;;12.85;100.00
52319;BME280;38258;51.148;14.068;2022-10-16T00:18:27;98118.00;;;12.83;100.00
52319;BME280;38258;51.148;14.068;2022-10-16T00:20:55;98113.75;;;12.80;100.00
52319;BME280;38258;51.148;14.068;2022-10-16T00:23:22;98115.53;;;12.80;100.00
52319;BME280;38258;51.148;14.068;2022-10-16T00:25:55;98119.16;;;12.77;100.00
52319;BME280;38258;51.148;14.068;2022-10-16T00:28:22;98121.88;;;12.74;100.00
52319;BME280;38258;51.148;14.068;2022-10-16T00:30:49;98120.72;;;12.81;100.00
52319;BME280;38258;51.148;14.068;2022-10-16T00:33:16;98117.50;;;12.75;100.00
52319;BME280;38258;51.148;14.068;2022-10-16T00:35:45;98127.84;;;12.78;100.00
52319;BME280;38258;51.148;14.068;2022-10-16T00:38:12;98130.47;;;12.78;100.00
52319;BME280;38258;51.148;14.068;2022-10-16T00:40:39;98131.78;;;12.67;100.00
52319;BME280;38258;51.148;14.068;2022-10-16T00:43:12;98127.56;;;12.63;100.00
52319;BME280;38258;51.148;14.068;2022-10-16T00:45:38;98129.16;;;12.67;100.00
52319;BME280;38258;51.148;14.068;2022-10-16T00:48:10;98126.47;;;12.69;100.00
52319;BME280;38258;51.148;14.068;2022-10-16T00:50:39;98129.22;;;12.66;100.00
52319;BME280;38258;51.148;14.068;2022-10-16T00:53:10;98133.59;;;12.65;100.00
52319;BME280;38258;51.148;14.068;2022-10-16T00:55:38;98133.47;;;12.68;100.00
52319;BME280;38258;51.148;14.068;2022-10-16T00:58:05;98136.81;;;12.51;100.00
52319;BME280;38258;51.148;14.068;2022-10-16T01:00:32;98127.84;;;12.57;100.00
52319;BME280;38258;51.148;14.068;2022-10-16T01:03:00;98131.78;;;12.67;100.00
52319;BME280;38258;51.148;14.068;2022-10-16T01:05:32;98130.16;;;12.65;100.00
52319;BME280;38258;51.148;14.068;2022-10-16T01:08:06;98133.31;;;12.51;100.00
52319;BME280;38258;51.148;14.068;2022-10-16T01:10:40;98131.91;;;12.64;100.00
52319;BME280;38258;51.148;14.068;2022-10-16T01:13:12;98127.56;;;12.63;100.00
52319;BME280;38258;51.148;14.068;2022-10-16T01:15:48;98131.91;;;12.64;100.00
52319;BME280;38258;51.148;14.068;2022-10-16T01:18:21;98133.75;;;12.62;100.00
52319;BME280;38258;51.148;14.068;2022-10-16T01:20:54;98130.56;;;12.54;100.00
52319;BME280;38258;51.148;14.068;2022-10-16T01:23:27;98132.78;;;12.65;100.00
52319;BME280;38258;51.148;14.068;2022-10-16T01:26:27;98134.59;;;12.63;100.00
52319;BME280;38258;51.148;14.068;2022-10-16T01:29:03;98130.47;;;12.57;100.00
52319;BME280;38258;51.148;14.068;2022-10-16T01:31:36;98124.22;;;12.59;100.00
52319;BME280;38258;51.148;14.068;2022-10-16T01:34:07;98133.47;;;12.68;100.00
52319;BME280;38258;51.148;14.068;2022-10-16T01:36:39;98122.47;;;12.60;100.00
52319;BME280;38258;51.148;14.068;2022-10-16T01:39:10;98123.66;;;12.73;100.00
52319;BME280;38258;51.148;14.068;2022-10-16T01:41:39;98124.75;;;12.68;100.00
52319;BME280;38258;51.148;14.068;2022-10-16T01:44:11;98137.81;;;12.69;100.00
52319;BME280;38258;51.148;14.068;2022-10-16T01:46:42;98139.22;;;12.78;100.00
52319;BME280;38258;51.148;14.068;2022-10-16T01:49:11;98148.66;;;12.82;100.00
52319;BME280;38258;51.148;14.068;2022-10-16T01:51:41;98143.75;;;12.95;100.00
52319;BME280;38258;51.148;14.068;2022-10-16T01:54:09;98148.88;;;12.98;100.00
52319;BME280;38258;51.148;14.068;2022-10-16T01:56:39;98151.19;;;13.06;100.00
52319;BME280;38258;51.148;14.068;2022-10-16T01:59:09;98154.00;;;13.01;100.00
52319;BME280;38258;51.148;14.068;2022-10-16T02:01:40;98145.66;;;13.12;100.00
52319;BME280;38258;51.148;14.068;2022-10-16T02:04:13;98156.44;;;13.06;100.00
52319;BME280;38258;51.148;14.068;2022-10-16T02:06:42;98147.41;;;13.12;100.00
52319;BME280;38258;51.148;14.068;2022-10-16T02:09:08;98154.53;;;13.10;100.00
52319;BME280;38258;51.148;14.068;2022-10-16T02:11:35;98145.19;;;13.23;100.00
52319;BME280;38258;51.148;14.068;2022-10-16T02:14:04;98150.72;;;13.17;100.00
52319;BME280;38258;51.148;14.068;2022-10-16T02:16:38;98157.69;;;13.18;100.00
52319;BME280;38258;51.148;14.068;2022-10-16T02:19:05;98160.22;;;13.20;100.00
52319;BME280;38258;51.148;14.068;2022-10-16T02:21:38;98160.13;;;13.23;100.00
52319;BME280;38258;51.148;14.068;2022-10-16T02:24:11;98163.72;;;13.20;100.00
52319;BME280;38258;51.148;14.068;2022-10-16T02:26:43;98161.88;;;13.22;100.00
52319;BME280;38258;51.148;14.068;2022-10-16T02:29:16;98168.84;;;13.23;100.00
52319;BME280;38258;51.148;14.068;2022-10-16T02:31:47;98162.59;;;13.26;100.00
52319;BME280;38258;51.148;14.068;2022-10-16T02:34:18;98166.41;;;13.19;100.00
52319;BME280;38258;51.148;14.068;2022-10-16T02:36:46;98164.69;;;13.18;100.00
52319;BME280;38258;51.148;14.068;2022-10-16T02:39:15;98170.09;;;13.14;100.00
52319;BME280;38258;51.148;14.068;2022-10-16T02:41:42;98161.53;;;13.30;100.00
52319;BME280;38258;51.148;14.068;2022-10-16T02:44:09;98162.41;;;13.31;100.00
52319;BME280;38258;51.148;14.068;2022-10-16T02:46:36;98158.72;;;13.35;100.00
52319;BME280;38258;51.148;14.068;2022-10-16T02:49:04;98152.75;;;13.31;100.00
52319;BME280;38258;51.148;14.068;2022-10-16T02:51:31;98167.91;;;13.24;100.00
52319;BME280;38258;51.148;14.068;2022-10-16T02:53:58;98164.25;;;13.28;100.00
52319;BME280;38258;51.148;14.068;2022-10-16T02:56:24;98170.47;;;13.26;100.00
52319;BME280;38258;51.148;14.068;2022-10-16T02:58:51;98163.34;;;13.29;100.00
52319;BME280;38258;51.148;14.068;2022-10-16T03:01:18;98173.75;;;13.31;100.00
52319;BME280;38258;51.148;14.068;2022-10-16T03:03:45;98167.19;;;13.41;100.00
52319;BME280;38258;51.148;14.068;2022-10-16T03:06:13;98161.22;;;13.38;100.00
52319;BME280;38258;51.148;14.068;2022-10-16T03:08:39;98161.31;;;13.36;100.00
52319;BME280;38258;51.148;14.068;2022-10-16T03:11:06;98160.44;;;13.36;100.00
52319;BME280;38258;51.148;14.068;2022-10-16T03:13:33;98153.41;;;13.36;100.00
52319;BME280;38258;51.148;14.068;2022-10-16T03:16:00;98151.78;;;13.34;100.00
52319;BME280;38258;51.148;14.068;2022-10-16T03:18:26;98160.72;;;13.29;100.00
52319;BME280;38258;51.148;14.068;2022-10-16T03:20:53;98163.19;;;13.33;100.00
52319;BME280;38258;51.148;14.068;2022-10-16T03:23:22;98168.59;;;13.29;100.00
52319;BME280;38258;51.148;14.068;2022-10-16T03:25:48;98167.72;;;13.29;100.00
52319;BME280;38258;51.148;14.068;2022-10-16T03:28:15;98170.22;;;13.32;100.00
52319;BME280;38258;51.148;14.068;2022-10-16T03:30:42;98171.53;;;13.22;100.00
52319;BME280;38258;51.148;14.068;2022-10-16T03:33:09;98176.28;;;13.34;100.00
52319;BME280;38258;51.148;14.068;2022-10-16T03:35:36;98179.19;;;13.26;100.00
52319;BME280;38258;51.148;14.068;2022-10-16T03:38:02;98175.78;;;13.24;100.00
52319;BME280;38258;51.148;14.068;2022-10-16T03:40:30;98171.03;;;13.34;100.00
52319;BME280;38258;51.148;14.068;2022-10-16T03:42:57;98171.84;;;13.35;100.00
52319;BME280;38258;51.148;14.068;2022-10-16T03:45:24;98172.25;;;13.25;100.00
52319;BME280;38258;51.148;14.068;2022-10-16T03:47:52;98188.25;;;13.40;100.00
52319;BME280;38258;51.148;14.068;2022-10-16T03:50:19;98192.38;;;13.47;100.00
52319;BME280;38258;51.148;14.068;2022-10-16T03:52:46;98183.72;;;13.45;100.00
52319;BME280;38258;51.148;14.068;2022-10-16T03:55:13;98178.91;;;13.55;100.00
52319;BME280;38258;51.148;14.068;2022-10-16T03:57:41;98189.75;;;13.47;100.00
52319;BME280;38258;51.148;14.068;2022-10-16T04:00:09;98177.50;;;13.25;100.00
52319;BME280;38258;51.148;14.068;2022-10-16T04:02:38;98192.38;;;13.47;100.00
52319;BME280;38258;51.148;14.068;2022-10-16T04:05:06;98196.56;;;13.51;100.00
52319;BME280;38258;51.148;14.068;2022-10-16T04:07:33;98205.13;;;13.56;100.00
52319;BME280;38258;51.148;14.068;2022-10-16T04:10:00;98202.75;;;13.50;100.00
52319;BME280;38258;51.148;14.068;2022-10-16T04:12:27;98210.00;;;13.45;100.00
52319;BME280;38258;51.148;14.068;2022-10-16T04:14:55;98208.16;;;13.47;100.00
52319;BME280;38258;51.148;14.068;2022-10-16T04:17:22;98208.53;;;13.59;100.00
52319;BME280;38258;51.148;14.068;2022-10-16T04:19:49;98201.03;;;13.49;100.00
52319;BME280;38258;51.148;14.068;2022-10-16T04:22:15;98199.53;;;13.43;100.00
52319;BME280;38258;51.148;14.068;2022-10-16T04:24:42;98201.41;;;13.40;100.00
52319;BME280;38258;51.148;14.068;2022-10-16T04:27:09;98199.69;;;13.39;100.00
52319;BME280;38258;51.148;14.068;2022-10-16T04:29:36;98202.97;;;13.23;100.00
52319;BME280;38258;51.148;14.068;2022-10-16T04:32:04;98215.38;;;13.20;100.00
52319;BME280;38258;51.148;14.068;2022-10-16T04:34:30;98202.53;;;13.34;100.00
52319;BME280;38258;51.148;14.068;2022-10-16T04:36:57;98209.88;;;13.26;100.00
52319;BME280;38258;51.148;14.068;2022-10-16T04:39:24;98217.56;;;13.31;100.00
52319;BME280;38258;51.148;14.068;2022-10-16T04:41:51;98220.53;;;13.23;100.00
52319;BME280;38258;51.148;14.068;2022-10-16T04:44:17;98220.75;;;13.17;100.00
52319;BME280;38258;51.148;14.068;2022-10-16T04:46:44;98205.59;;;13.23;100.00
52319;BME280;38258;51.148;14.068;2022-10-16T04:49:12;98217.94;;;13.21;100.00
52319;BME280;38258;51.148;14.068;2022-10-16T04:51:39;98210.13;;;13.20;100.00
52319;BME280;38258;51.148;14.068;2022-10-16T04:54:06;98215.84;;;13.09;100.00
52319;BME280;38258;51.148;14.068;2022-10-16T04:56:32;98223.53;;;13.13;100.00
52319;BME280;38258;51.148;14.068;2022-10-16T04:59:05;98217.53;;;13.10;100.00
52319;BME280;38258;51.148;14.068;2022-10-16T05:01:32;98223.28;;;12.97;100.00
52319;BME280;38258;51.148;14.068;2022-10-16T05:03:59;98225.31;;;13.13;100.00
52319;BME280;38258;51.148;14.068;2022-10-16T05:06:27;98215.03;;;13.07;100.00
52319;BME280;38258;51.148;14.068;2022-10-16T05:08:54;98211.63;;;13.05;100.00
52319;BME280;38258;51.148;14.068;2022-10-16T05:11:21;98212.28;;;13.10;100.00
52319;BME280;38258;51.148;14.068;2022-10-16T05:13:48;98221.41;;;13.01;100.00
52319;BME280;38258;51.148;14.068;2022-10-16T05:16:15;98216.88;;;13.05;100.00
52319;BME280;38258;51.148;14.068;2022-10-16T05:18:41;98193.47;;;12.78;100.00
52319;BME280;38258;51.148;14.068;2022-10-16T05:21:08;98230.47;;;12.94;100.00
52319;BME280;38258;51.148;14.068;2022-10-16T05:23:36;98223.25;;;12.99;100.00
52319;BME280;38258;51.148;14.068;2022-10-16T05:26:03;98214.28;;;12.82;100.00
52319;BME280;38258;51.148;14.068;2022-10-16T05:28:31;98221.16;;;13.07;100.00
52319;BME280;38258;51.148;14.068;2022-10-16T05:30:58;98220.75;;;12.96;100.00
52319;BME280;38258;51.148;14.068;2022-10-16T05:33:25;98241.97;;;12.90;100.00
52319;BME280;38258;51.148;14.068;2022-10-16T05:35:52;98249.53;;;12.97;100.00
52319;BME280;38258;51.148;14.068;2022-10-16T05:38:19;98246.91;;;12.97;100.00
52319;BME280;38258;51.148;14.068;2022-10-16T05:40:51;98244.09;;;13.02;100.00
52319;BME280;38258;51.148;14.068;2022-10-16T05:43:18;98217.34;;;12.94;100.00
52319;BME280;38258;51.148;14.068;2022-10-16T05:45:53;98191.25;;;12.89;100.00
52319;BME280;38258;51.148;14.068;2022-10-16T05:48:20;98243.94;;;13.07;100.00
52319;BME280;38258;51.148;14.068;2022-10-16T05:50:47;98245.94;;;13.00;100.00
52319;BME280;38258;51.148;14.068;2022-10-16T05:53:14;98220.47;;;13.02;100.00
52319;BME280;38258;51.148;14.068;2022-10-16T05:55:40;98238.44;;;13.13;100.00
52319;BME280;38258;51.148;14.068;2022-10-16T05:58:08;98256.97;;;13.31;100.00
52319;BME280;38258;51.148;14.068;2022-10-16T06:00:35;98258.13;;;13.23;100.00
52319;BME280;38258;51.148;14.068;2022-10-16T06:03:02;98257.75;;;13.33;100.00
52319;BME280;38258;51.148;14.068;2022-10-16T06:05:30;98252.75;;;13.26;100.00
52319;BME280;38258;51.148;14.068;2022-10-16T06:07:56;98268.22;;;13.34;100.00
52319;BME280;38258;51.148;14.068;2022-10-16T06:10:23;98282.69;;;13.45;100.00
52319;BME280;38258;51.148;14.068;2022-10-16T06:12:50;98283.47;;;13.47;100.00
52319;BME280;38258;51.148;14.068;2022-10-16T06:15:18;98298.72;;;13.37;100.00
52319;BME280;38258;51.148;14.068;2022-10-16T06:17:44;98292.75;;;13.33;100.00
52319;BME280;38258;51.148;14.068;2022-10-16T06:20:11;98286.47;;;13.37;100.00
52319;BME280;38258;51.148;14.068;2022-10-16T06:22:38;98291.47;;;13.43;100.00
52319;BME280;38258;51.148;14.068;2022-10-16T06:25:05;98286.09;;;13.47;100.00
52319;BME280;38258;51.148;14.068;2022-10-16T06:27:32;98274.63;;;13.49;100.00
52319;BME280;38258;51.148;14.068;2022-10-16T06:29:58;98288.66;;;13.48;100.00
52319;BME280;38258;51.148;14.068;2022-10-16T06:32:27;98299.66;;;13.58;100.00
52319;BME280;38258;51.148;14.068;2022-10-16T06:34:53;98304.38;;;13.50;100.00
52319;BME280;38258;51.148;14.068;2022-10-16T06:37:20;98290.72;;;13.40;100.00
52319;BME280;38258;51.148;14.068;2022-10-16T06:39:47;98316.59;;;13.71;100.00
52319;BME280;38258;51.148;14.068;2022-10-16T06:42:14;98321.63;;;13.55;100.00
52319;BME280;38258;51.148;14.068;2022-10-16T06:44:40;98309.91;;;13.64;100.00
52319;BME280;38258;51.148;14.068;2022-10-16T06:47:07;98332.56;;;13.67;100.00
52319;BME280;38258;51.148;14.068;2022-10-16T06:49:35;98334.72;;;13.57;100.00
52319;BME280;38258;51.148;14.068;2022-10-16T06:52:02;98329.00;;;13.68;100.00
52319;BME280;38258;51.148;14.068;2022-10-16T06:54:30;98337.66;;;13.49;100.00
52319;BME280;38258;51.148;14.068;2022-10-16T06:56:56;98320.94;;;13.52;100.00
52319;BME280;38258;51.148;14.068;2022-10-16T06:59:25;98331.00;;;13.63;100.00
52319;BME280;38258;51.148;14.068;2022-10-16T07:01:52;98341.78;;;13.77;100.00
52319;BME280;38258;51.148;14.068;2022-10-16T07:04:18;98340.19;;;13.94;100.00
52319;BME280;38258;51.148;14.068;2022-10-16T07:06:46;98345.47;;;13.94;100.00
52319;BME280;38258;51.148;14.068;2022-10-16T07:09:13;98354.03;;;13.99;100.00
52319;BME280;38258;51.148;14.068;2022-10-16T07:11:40;98345.00;;;14.05;100.00
52319;BME280;38258;51.148;14.068;2022-10-16T07:14:13;98350.06;;;14.30;100.00
52319;BME280;38258;51.148;14.068;2022-10-16T07:16:41;98357.81;;;14.33;100.00
52319;BME280;38258;51.148;14.068;2022-10-16T07:19:08;98364.44;;;14.42;100.00
52319;BME280;38258;51.148;14.068;2022-10-16T07:21:37;98360.03;;;14.42;100.00
52319;BME280;38258;51.148;14.068;2022-10-16T07:24:07;98366.31;;;14.59;100.00
52319;BME280;38258;51.148;14.068;2022-10-16T07:26:35;98366.88;;;14.47;100.00
52319;BME280;38258;51.148;14.068;2022-10-16T07:29:02;98364.63;;;14.37;100.00
52319;BME280;38258;51.148;14.068;2022-10-16T07:31:29;98392.63;;;14.59;100.00
52319;BME280;38258;51.148;14.068;2022-10-16T07:33:58;98387.03;;;14.67;100.00
52319;BME280;38258;51.148;14.068;2022-10-16T07:36:25;98391.56;;;14.63;100.00
52319;BME280;38258;51.148;14.068;2022-10-16T07:38:52;98393.19;;;14.87;100.00
52319;BME280;38258;51.148;14.068;2022-10-16T07:41:20;98401.44;;;14.79;100.00
52319;BME280;38258;51.148;14.068;2022-10-16T07:43:47;98391.41;;;14.87;100.00
52319;BME280;38258;51.148;14.068;2022-10-16T07:46:15;98384.09;;;14.94;100.00
52319;BME280;38258;51.148;14.068;2022-10-16T07:48:42;98389.13;;;14.98;100.00
52319;BME280;38258;51.148;14.068;2022-10-16T07:51:13;98390.19;;;14.94;100.00
52319;BME280;38258;51.148;14.068;2022-10-16T07:53:40;98400.56;;;14.97;100.00
52319;BME280;38258;51.148;14.068;2022-10-16T07:56:07;98401.50;;;14.96;100.00
52319;BME280;38258;51.148;14.068;2022-10-16T07:58:35;98409.56;;;14.93;100.00
52319;BME280;38258;51.148;14.068;2022-10-16T08:01:04;98410.19;;;14.79;100.00
52319;BME280;38258;51.148;14.068;2022-10-16T08:03:31;98418.59;;;14.88;100.00
52319;BME280;38258;51.148;14.068;2022-10-16T08:05:59;98417.50;;;14.92;100.00
52319;BME280;38258;51.148;14.068;2022-10-16T08:08:26;98418.75;;;15.04;100.00
52319;BME280;38258;51.148;14.068;2022-10-16T08:10:53;98432.31;;;14.94;100.00
52319;BME280;38258;51.148;14.068;2022-10-16T08:13:20;98438.47;;;15.14;100.00
52319;BME280;38258;51.148;14.068;2022-10-16T08:15:48;98430.56;;;15.14;100.00
52319;BME280;38258;51.148;14.068;2022-10-16T08:18:15;98428.50;;;15.02;100.00
52319;BME280;38258;51.148;14.068;2022-10-16T08:20:42;98440.19;;;15.15;100.00
52319;BME280;38258;51.148;14.068;2022-10-16T08:23:10;98430.53;;;15.33;100.00
52319;BME280;38258;51.148;14.068;2022-10-16T08:25:37;98420.66;;;15.38;100.00
52319;BME280;38258;51.148;14.068;2022-10-16T08:28:04;98428.97;;;15.48;100.00
52319;BME280;38258;51.148;14.068;2022-10-16T08:30:31;98421.47;;;15.58;100.00
52319;BME280;38258;51.148;14.068;2022-10-16T08:32:59;98419.06;;;15.53;100.00
52319;BME280;38258;51.148;14.068;2022-10-16T08:35:26;98408.44;;;15.55;100.00
52319;BME280;38258;51.148;14.068;2022-10-16T08:37:53;98431.72;;;15.64;100.00
52319;BME280;38258;51.148;14.068;2022-10-16T08:40:22;98431.28;;;15.74;100.00
52319;BME280;38258;51.148;14.068;2022-10-16T08:46:09;98416.16;;;15.77;100.00
52319;BME280;38258;51.148;14.068;2022-10-16T08:48:45;98424.56;;;15.86;100.00
52319;BME280;38258;51.148;14.068;2022-10-16T08:51:19;98412.56;;;15.97;100.00
52319;BME280;38258;51.148;14.068;2022-10-16T08:53:50;98429.59;;;15.90;100.00
52319;BME280;38258;51.148;14.068;2022-10-16T08:56:19;98445.00;;;16.00;100.00
52319;BME280;38258;51.148;14.068;2022-10-16T08:58:46;98434.41;;;15.82;100.00
52319;BME280;38258;51.148;14.068;2022-10-16T09:01:15;98437.41;;;15.74;100.00
52319;BME280;38258;51.148;14.068;2022-10-16T09:04:04;98447.84;;;15.95;100.00
52319;BME280;38258;51.148;14.068;2022-10-16T09:06:40;98434.38;;;16.19;100.00
52319;BME280;38258;51.148;14.068;2022-10-16T09:09:24;98426.13;;;16.25;100.00
52319;BME280;38258;51.148;14.068;2022-10-16T09:12:01;98443.53;;;16.29;100.00
52319;BME280;38258;51.148;14.068;2022-10-16T09:14:42;98441.41;;;18.00;100.00
52319;BME280;38258;51.148;14.068;2022-10-16T09:17:34;98444.19;;;19.03;100.00
52319;BME280;38258;51.148;14.068;2022-10-16T09:20:17;98446.91;;;19.58;100.00
52319;BME280;38258;51.148;14.068;2022-10-16T09:22:44;98444.84;;;19.63;100.00
52319;BME280;38258;51.148;14.068;2022-10-16T09:25:19;98432.31;;;19.65;100.00
52319;BME280;38258;51.148;14.068;2022-10-16T09:27:48;98427.59;;;19.83;100.00
52319;BME280;38258;51.148;14.068;2022-10-16T09:30:18;98434.50;;;19.86;100.00
52319;BME280;38258;51.148;14.068;2022-10-16T09:32:50;98435.78;;;20.08;100.00
52319;BME280;38258;51.148;14.068;2022-10-16T09:35:21;98444.28;;;19.85;100.00
52319;BME280;38258;51.148;14.068;2022-10-16T09:37:50;98450.38;;;20.00;100.00
52319;BME280;38258;51.148;14.068;2022-10-16T09:40:25;98462.28;;;19.95;100.00
52319;BME280;38258;51.148;14.068;2022-10-16T09:42:57;98463.56;;;20.02;100.00
52319;BME280;38258;51.148;14.068;2022-10-16T09:45:25;98453.34;;;19.68;100.00
52319;BME280;38258;51.148;14.068;2022-10-16T09:47:51;98452.41;;;20.50;100.00
52319;BME280;38258;51.148;14.068;2022-10-16T09:50:23;98451.25;;;20.41;100.00
52319;BME280;38258;51.148;14.068;2022-10-16T09:53:03;98458.41;;;20.13;100.00
52319;BME280;38258;51.148;14.068;2022-10-16T09:55:30;98459.03;;;20.96;100.00
52319;BME280;38258;51.148;14.068;2022-10-16T09:57:56;98465.25;;;20.56;100.00
52319;BME280;38258;51.148;14.068;2022-10-16T10:00:24;98461.94;;;19.44;100.00
52319;BME280;38258;51.148;14.068;2022-10-16T10:02:51;98467.63;;;19.24;100.00
52319;BME280;38258;51.148;14.068;2022-10-16T10:05:22;98471.44;;;19.19;100.00
52319;BME280;38258;51.148;14.068;2022-10-16T10:07:54;98467.81;;;18.91;100.00
52319;BME280;38258;51.148;14.068;2022-10-16T10:10:23;98468.03;;;19.03;100.00
52319;BME280;38258;51.148;14.068;2022-10-16T10:12:50;98474.16;;;19.32;100.00
52319;BME280;38258;51.148;14.068;2022-10-16T10:15:17;98469.94;;;19.30;100.00
52319;BME280;38258;51.148;14.068;2022-10-16T10:17:48;98468.13;;;19.58;100.00
52319;BME280;38258;51.148;14.068;2022-10-16T10:20:27;98483.84;;;19.04;100.00
52319;BME280;38258;51.148;14.068;2022-10-16T10:22:54;98479.75;;;19.28;100.00
52319;BME280;38258;51.148;14.068;2022-10-16T10:25:39;98491.91;;;19.03;100.00
52319;BME280;38258;51.148;14.068;2022-10-16T10:28:21;98481.19;;;19.04;100.00
52319;BME280;38258;51.148;14.068;2022-10-16T10:30:57;98474.56;;;19.26;100.00
52319;BME280;38258;51.148;14.068;2022-10-16T10:33:33;98495.38;;;19.03;100.00
52319;BME280;38258;51.148;14.068;2022-10-16T10:36:12;98483.06;;;18.88;100.00
52319;BME280;38258;51.148;14.068;2022-10-16T10:38:45;98494.78;;;18.69;100.00
52319;BME280;38258;51.148;14.068;2022-10-16T10:41:28;98490.75;;;19.07;100.00
52319;BME280;38258;51.148;14.068;2022-10-16T10:44:04;98504.41;;;19.15;100.00
52319;BME280;38258;51.148;14.068;2022-10-16T10:46:35;98501.81;;;19.85;100.00
52319;BME280;38258;51.148;14.068;2022-10-16T10:49:22;98496.59;;;19.98;100.00
52319;BME280;38258;51.148;14.068;2022-10-16T10:51:58;98494.63;;;19.01;100.00
52319;BME280;38258;51.148;14.068;2022-10-16T10:54:32;98507.72;;;18.59;100.00
52319;BME280;38258;51.148;14.068;2022-10-16T10:57:09;98502.69;;;18.55;100.00
52319;BME280;38258;51.148;14.068;2022-10-16T11:00:03;98492.00;;;18.56;100.00
52319;BME280;38258;51.148;14.068;2022-10-16T11:02:38;98469.59;;;18.17;100.00
52319;BME280;38258;51.148;14.068;2022-10-16T11:05:31;98467.06;;;18.30;100.00
52319;BME280;38258;51.148;14.068;2022-10-16T11:08:07;98398.84;;;17.58;100.00
52319;BME280;38258;51.148;14.068;2022-10-16T11:10:44;98494.03;;;18.36;100.00
52319;BME280;38258;51.148;14.068;2022-10-16T11:13:19;98500.34;;;18.34;100.00
52319;BME280;38258;51.148;14.068;2022-10-16T11:15:51;98504.94;;;18.46;100.00
52319;BME280;38258;51.148;14.068;2022-10-16T11:18:21;98496.50;;;18.85;100.00
52319;BME280;38258;51.148;14.068;2022-10-16T11:20:52;98491.75;;;18.75;100.00
52319;BME280;38258;51.148;14.068;2022-10-16T11:23:26;98487.34;;;19.19;100.00
52319;BME280;38258;51.148;14.068;2022-10-16T11:25:57;98496.53;;;19.70;100.00
52319;BME280;38258;51.148;14.068;2022-10-16T11:28:29;98501.16;;;19.81;100.00
52319;BME280;38258;51.148;14.068;2022-10-16T11:31:00;98500.69;;;19.32;100.00
52319;BME280;38258;51.148;14.068;2022-10-16T11:33:32;98497.47;;;19.42;100.00
52319;BME280;38258;51.148;14.068;2022-10-16T11:36:10;98497.06;;;19.33;100.00
52319;BME280;38258;51.148;14.068;2022-10-16T11:38:46;98498.50;;;19.25;100.00
52319;BME280;38258;51.148;14.068;2022-10-16T11:41:24;98500.88;;;19.29;100.00
52319;BME280;38258;51.148;14.068;2022-10-16T11:44:06;98500.41;;;19.08;100.00
52319;BME280;38258;51.148;14.068;2022-10-16T11:46:40;98502.47;;;18.88;100.00
52319;BME280;38258;51.148;14.068;2022-10-16T11:49:13;98510.97;;;18.79;100.00
52319;BME280;38258;51.148;14.068;2022-10-16T11:51:44;98508.31;;;18.79;100.00
52319;BME280;38258;51.148;14.068;2022-10-16T11:54:20;98504.72;;;18.80;100.00
52319;BME280;38258;51.148;14.068;2022-10-16T11:56:52;98493.72;;;18.86;100.00
52319;BME280;38258;51.148;14.068;2022-10-16T11:59:27;98501.13;;;18.96;100.00
52319;BME280;38258;51.148;14.068;2022-10-16T12:02:07;98521.53;;;19.24;100.00
52319;BME280;38258;51.148;14.068;2022-10-16T12:04:48;98515.81;;;19.45;100.00
52319;BME280;38258;51.148;14.068;2022-10-16T12:07:19;98512.19;;;19.60;100.00
52319;BME280;38258;51.148;14.068;2022-10-16T12:09:50;98514.38;;;19.54;100.00
52319;BME280;38258;51.148;14.068;2022-10-16T12:12:27;98517.44;;;19.47;100.00
52319;BME280;38258;51.148;14.068;2022-10-16T12:15:19;98511.38;;;19.45;100.00
52319;BME280;38258;51.148;14.068;2022-10-16T12:17:47;98527.59;;;19.41;100.00
52319;BME280;38258;51.148;14.068;2022-10-16T12:20:27;98507.47;;;19.36;100.00
52319;BME280;38258;51.148;14.068;2022-10-16T12:22:59;98525.72;;;19.70;100.00
52319;BME280;38258;51.148;14.068;2022-10-16T12:25:29;98535.66;;;20.23;100.00
52319;BME280;38258;51.148;14.068;2022-10-16T12:28:00;98532.56;;;20.29;99.96
52319;BME280;38258;51.148;14.068;2022-10-16T12:30:29;98523.19;;;20.51;99.35
52319;BME280;38258;51.148;14.068;2022-10-16T12:32:58;98520.53;;;20.51;96.37
52319;BME280;38258;51.148;14.068;2022-10-16T12:35:27;98518.97;;;20.61;94.54
52319;BME280;38258;51.148;14.068;2022-10-16T12:38:08;98529.53;;;20.48;95.79
52319;BME280;38258;51.148;14.068;2022-10-16T12:40:43;98530.47;;;20.34;96.52
52319;BME280;38258;51.148;14.068;2022-10-16T12:43:13;98528.56;;;20.37;94.52
52319;BME280;38258;51.148;14.068;2022-10-16T12:45:59;98536.66;;;20.08;95.54
52319;BME280;38258;51.148;14.068;2022-10-16T12:48:26;98537.66;;;19.77;97.07
52319;BME280;38258;51.148;14.068;2022-10-16T12:50:54;98534.63;;;19.69;96.28
52319;BME280;38258;51.148;14.068;2022-10-16T12:53:23;98540.16;;;19.52;98.01
52319;BME280;38258;51.148;14.068;2022-10-16T12:56:01;98539.69;;;19.45;98.67
52319;BME280;38258;51.148;14.068;2022-10-16T12:58:47;98543.88;;;19.34;99.33